Time;durP1;ratioP1;P1;durP2;ratioP2;P2;SDS_P1;SDS_P2;PMS_P1;PMS_P2;Temp;Humidity;BMP_temperature;BMP_pressure;BME280_temperature;BME280_humidity;BME280_pressure;Samples;Min_cycle;Max_cycle;Signal;HPM_P1;HPM_P2
2022/11/10 00:00:57;;;;;;;17.08;11.90;;;10.90;99.90;;;;;;5060478;28;20052;-80
2022/11/10 00:03:42;;;;;;;20.20;12.27;;;11.00;99.90;;;;;;5069749;28;20393;-80
2022/11/10 00:06:29;;;;;;;16.60;11.50;;;10.90;99.90;;;;;;5062637;28;20052;-79
2022/11/10 00:09:14;;;;;;;15.63;11.93;;;11.00;99.90;;;;;;5067791;28;20148;-81
2022/11/10 00:12:01;;;;;;;15.07;11.80;;;11.00;99.90;;;;;;5081985;28;20048;-81
2022/11/10 00:17:51;;;;;;;22.98;12.48;;;11.00;99.90;;;;;;5063590;28;20045;-80
2022/11/10 00:20:37;;;;;;;16.10;12.20;;;10.90;99.90;;;;;;5069607;28;20378;-81
2022/11/10 00:23:23;;;;;;;12.63;10.75;;;10.90;99.90;;;;;;5065080;28;20421;-81
2022/11/10 00:26:15;;;;;;;18.30;12.75;;;10.90;99.90;;;;;;5067696;28;20147;-80
2022/11/10 00:29:01;;;;;;;16.98;12.48;;;10.90;99.90;;;;;;5066305;28;20060;-80
2022/11/10 00:31:47;;;;;;;17.98;12.23;;;10.90;99.90;;;;;;5068144;28;20048;-81
2022/11/10 00:34:35;;;;;;;15.38;11.10;;;10.80;99.90;;;;;;5066474;28;20531;-80
2022/11/10 00:37:21;;;;;;;14.15;11.95;;;10.80;99.90;;;;;;5068423;28;20040;-81
2022/11/10 00:40:08;;;;;;;12.02;9.88;;;10.80;99.90;;;;;;5053086;28;20429;-81
2022/11/10 00:42:54;;;;;;;13.73;10.25;;;10.80;99.90;;;;;;5063214;28;20097;-80
2022/11/10 00:45:43;;;;;;;13.07;10.38;;;10.80;99.90;;;;;;5069204;28;20048;-79
2022/11/10 00:48:29;;;;;;;12.35;9.40;;;10.80;99.90;;;;;;5050633;28;20534;-82
2022/11/10 00:51:23;;;;;;;12.57;8.63;;;10.80;99.90;;;;;;5056977;28;20441;-80
2022/11/10 00:54:09;;;;;;;14.07;9.40;;;10.90;99.90;;;;;;5069402;28;20044;-79
2022/11/10 00:56:55;;;;;;;15.32;10.35;;;10.90;99.90;;;;;;5066492;28;20110;-81
2022/11/10 00:59:41;;;;;;;11.07;8.18;;;10.90;99.90;;;;;;5067467;28;20414;-77
2022/11/10 01:02:28;;;;;;;11.20;8.80;;;10.90;99.90;;;;;;5067246;28;20055;-80
2022/11/10 01:05:14;;;;;;;11.57;8.45;;;10.90;99.90;;;;;;5069386;28;20052;-80
2022/11/10 01:08:01;;;;;;;11.18;9.05;;;10.80;99.90;;;;;;5069880;28;20044;-80
2022/11/10 01:10:47;;;;;;;11.73;8.25;;;10.80;99.90;;;;;;5067995;28;20526;-81
2022/11/10 01:13:34;;;;;;;13.95;10.15;;;10.80;99.90;;;;;;5068798;28;20040;-80
2022/11/10 01:16:23;;;;;;;11.85;7.93;;;10.80;99.90;;;;;;5069776;28;20635;-80
2022/11/10 01:19:09;;;;;;;9.30;7.38;;;10.80;99.90;;;;;;5070844;28;20166;-79
2022/11/10 01:21:59;;;;;;;11.10;8.15;;;10.90;99.90;;;;;;5071339;28;20497;-79
2022/11/10 01:24:47;;;;;;;9.80;7.40;;;10.90;99.90;;;;;;5052673;28;20057;-81
2022/11/10 01:27:33;;;;;;;8.55;7.22;;;10.90;99.90;;;;;;5052130;28;20045;-78
2022/11/10 01:30:19;;;;;;;8.15;7.13;;;10.90;99.90;;;;;;5071343;28;20048;-79
2022/11/10 01:33:05;;;;;;;11.15;7.55;;;10.90;99.90;;;;;;5071472;28;20657;-79
2022/11/10 01:35:51;;;;;;;10.40;7.05;;;10.90;99.90;;;;;;5073060;28;20193;-78
2022/11/10 01:38:40;;;;;;;8.55;7.50;;;10.90;99.90;;;;;;5071727;28;20060;-78
2022/11/10 01:41:28;;;;;;;7.78;6.95;;;10.80;99.90;;;;;;5072191;28;20170;-79
2022/11/10 01:44:17;;;;;;;8.38;7.35;;;10.80;99.90;;;;;;5072144;28;20078;-80
2022/11/10 01:47:03;;;;;;;10.82;7.75;;;10.80;99.90;;;;;;5070354;28;20067;-80
2022/11/10 01:49:50;;;;;;;9.50;7.78;;;10.80;99.90;;;;;;5070559;28;20394;-80
2022/11/10 01:52:36;;;;;;;8.90;7.38;;;10.80;99.90;;;;;;5072540;28;20056;-79
2022/11/10 01:55:23;;;;;;;9.25;7.78;;;10.80;99.90;;;;;;5070931;28;20036;-72
2022/11/10 01:58:12;;;;;;;10.30;7.82;;;10.70;99.90;;;;;;5071034;28;20091;-72
2022/11/10 02:00:58;;;;;;;9.30;8.20;;;10.70;99.90;;;;;;5078796;28;20055;-72
2022/11/10 02:03:50;;;;;;;9.95;8.10;;;10.80;99.90;;;;;;5073417;28;20190;-72
2022/11/10 02:06:41;;;;;;;10.15;7.97;;;10.70;99.90;;;;;;5070118;28;20044;-73
2022/11/10 02:09:27;;;;;;;10.13;7.13;;;10.80;99.90;;;;;;5058840;28;20049;-73
2022/11/10 02:12:14;;;;;;;7.78;6.97;;;10.80;99.90;;;;;;5067130;28;20056;-73
2022/11/10 02:15:01;;;;;;;8.70;7.25;;;10.80;99.90;;;;;;5060973;28;20052;-72
2022/11/10 02:17:49;;;;;;;9.60;7.50;;;10.80;99.90;;;;;;5071778;28;20158;-73
2022/11/10 02:20:35;;;;;;;8.05;7.25;;;10.80;99.90;;;;;;5071722;28;20052;-73
2022/11/10 02:23:46;;;;;;;8.40;7.55;;;10.70;99.90;;;;;;5058541;28;20052;-74
2022/11/10 02:26:32;;;;;;;7.28;6.57;;;10.80;99.90;;;;;;5091663;28;20048;-73
2022/11/10 02:29:18;;;;;;;10.05;7.28;;;10.80;99.90;;;;;;5071016;28;20136;-74
2022/11/10 02:32:05;;;;;;;10.13;7.03;;;10.70;99.90;;;;;;5072714;28;20151;-73
2022/11/10 02:34:51;;;;;;;7.93;7.13;;;10.80;99.90;;;;;;5070106;28;20463;-72
2022/11/10 02:37:37;;;;;;;10.57;6.82;;;10.80;99.90;;;;;;5071587;28;20432;-72
2022/11/10 02:40:24;;;;;;;7.65;6.78;;;10.80;99.90;;;;;;5071993;28;20059;-73
2022/11/10 02:43:13;;;;;;;7.13;6.43;;;10.80;99.90;;;;;;5069212;28;20060;-73
2022/11/10 02:45:59;;;;;;;6.85;6.15;;;10.80;99.90;;;;;;5069330;28;20051;-73
2022/11/10 02:48:45;;;;;;;8.00;6.28;;;10.80;99.90;;;;;;5055194;28;20044;-74
2022/11/10 02:51:31;;;;;;;8.30;6.65;;;10.80;99.90;;;;;;5069392;28;20040;-74
2022/11/10 02:54:17;;;;;;;7.07;5.75;;;10.80;99.90;;;;;;5064925;28;20052;-74
2022/11/10 02:57:05;;;;;;;6.22;5.53;;;10.80;99.90;;;;;;5072708;28;20048;-72
2022/11/10 02:59:51;;;;;;;6.38;5.35;;;10.80;99.90;;;;;;5067766;28;20041;-72
2022/11/10 03:02:36;;;;;;;7.45;6.72;;;10.80;99.90;;;;;;5067905;28;20051;-72
2022/11/10 03:05:23;;;;;;;9.13;4.80;;;10.70;99.90;;;;;;5070915;28;20056;-73
2022/11/10 03:08:09;;;;;;;7.68;5.85;;;10.80;99.90;;;;;;5064644;28;20124;-73
2022/11/10 03:10:56;;;;;;;6.03;5.53;;;10.80;99.90;;;;;;5061238;28;20083;-73
2022/11/10 03:13:44;;;;;;;5.97;5.38;;;10.80;99.90;;;;;;5066873;28;20080;-73
2022/11/10 03:16:30;;;;;;;5.88;4.88;;;10.80;99.90;;;;;;5051889;28;20374;-73
2022/11/10 03:19:15;;;;;;;5.63;5.13;;;10.80;99.90;;;;;;5058683;28;20068;-73
2022/11/10 03:22:02;;;;;;;6.50;4.88;;;10.80;99.90;;;;;;5063748;28;20135;-73
2022/11/10 03:24:48;;;;;;;6.20;4.88;;;10.80;99.90;;;;;;5069645;28;20059;-73
2022/11/10 03:27:34;;;;;;;5.25;4.63;;;10.80;99.90;;;;;;5069778;28;20052;-74
2022/11/10 03:30:22;;;;;;;4.70;4.38;;;10.80;99.90;;;;;;5066363;28;20041;-73
2022/11/10 03:33:09;;;;;;;4.75;4.35;;;10.80;99.90;;;;;;5055713;28;20047;-73
2022/11/10 03:35:55;;;;;;;5.30;4.45;;;10.70;99.90;;;;;;5082116;28;20071;-73
2022/11/10 03:38:41;;;;;;;4.97;4.55;;;10.70;99.90;;;;;;5066499;28;20040;-73
2022/11/10 03:41:27;;;;;;;4.85;4.28;;;10.60;99.90;;;;;;5059312;28;20049;-73
2022/11/10 03:44:13;;;;;;;5.80;4.40;;;10.60;99.90;;;;;;5067094;28;20044;-74
2022/11/10 03:47:02;;;;;;;4.93;4.38;;;10.60;99.90;;;;;;5068927;28;20158;-75
2022/11/10 03:49:49;;;;;;;6.03;5.30;;;10.60;99.90;;;;;;5062419;28;20075;-73
2022/11/10 03:52:35;;;;;;;4.65;4.13;;;10.60;99.90;;;;;;5069057;28;20041;-73
2022/11/10 03:55:21;;;;;;;4.93;4.43;;;10.60;99.90;;;;;;5058344;28;20075;-74
2022/11/10 03:58:07;;;;;;;5.57;4.43;;;10.60;99.90;;;;;;5065448;28;20060;-74
2022/11/10 04:00:53;;;;;;;4.25;3.95;;;10.60;99.90;;;;;;5068595;28;20040;-74
2022/11/10 04:03:40;;;;;;;5.40;3.92;;;10.60;99.90;;;;;;5061259;28;20051;-73
2022/11/10 04:09:30;;;;;;;3.80;3.50;;;10.60;99.90;;;;;;5060296;28;20501;-73
2022/11/10 04:18:28;;;;;;;6.00;4.38;;;10.60;99.90;;;;;;5066263;28;19929;-75
2022/11/10 04:21:17;;;;;;;8.27;4.82;;;10.60;99.90;;;;;;5069874;28;20053;-73
2022/11/10 04:24:03;;;;;;;5.53;4.53;;;10.60;99.90;;;;;;5055369;28;20156;-74
2022/11/10 04:26:49;;;;;;;5.97;5.22;;;10.60;99.90;;;;;;5067899;28;20059;-74
2022/11/10 04:29:36;;;;;;;9.02;6.22;;;10.60;99.90;;;;;;5067517;28;20135;-74
2022/11/10 04:32:22;;;;;;;12.63;7.70;;;10.70;99.90;;;;;;5052027;28;20060;-73
2022/11/10 04:35:09;;;;;;;9.50;5.90;;;10.70;99.90;;;;;;5064400;28;20052;-75
2022/11/10 04:37:56;;;;;;;7.60;6.15;;;10.70;99.90;;;;;;5066719;28;20058;-74
2022/11/10 04:40:43;;;;;;;7.05;6.15;;;10.70;99.90;;;;;;5068538;28;20390;-73
2022/11/10 04:43:29;;;;;;;6.63;5.25;;;10.80;99.90;;;;;;5064823;28;20118;-75
2022/11/10 04:46:23;;;;;;;6.40;5.28;;;10.80;99.90;;;;;;5069647;28;20512;-73
2022/11/10 04:49:10;;;;;;;;;;;10.80;99.90;;;;;;5062732;28;20388;-80
2022/11/10 04:51:58;;;;;;;6.22;4.97;;;10.80;99.90;;;;;;5064072;28;19928;-73
2022/11/10 04:54:52;;;;;;;7.70;5.05;;;10.80;99.90;;;;;;5061912;28;20048;-74
2022/11/10 04:57:39;;;;;;;6.13;4.72;;;10.80;99.90;;;;;;5054966;28;20052;-76
2022/11/10 05:00:25;;;;;;;6.13;5.28;;;10.80;99.90;;;;;;5065003;28;20098;-73
2022/11/10 05:03:15;;;;;;;5.20;4.80;;;10.80;99.90;;;;;;5067723;28;20059;-74
2022/11/10 05:06:01;;;;;;;7.03;5.13;;;10.80;99.90;;;;;;5073867;28;20105;-80
2022/11/10 05:08:48;;;;;;;8.25;5.68;;;10.80;99.90;;;;;;5077427;28;20483;-73
2022/11/10 05:11:35;;;;;;;5.85;4.70;;;10.80;99.90;;;;;;5066938;28;20040;-76
2022/11/10 05:14:21;;;;;;;6.28;4.93;;;10.90;99.90;;;;;;5068015;28;20516;-77
2022/11/10 05:17:07;;;;;;;5.13;4.63;;;10.90;99.90;;;;;;5056075;28;20051;-79
2022/11/10 05:19:54;;;;;;;8.50;4.97;;;10.90;99.90;;;;;;5061194;28;20049;-74
2022/11/10 05:22:40;;;;;;;6.82;5.75;;;10.80;99.90;;;;;;5053772;28;20342;-73
2022/11/10 05:25:26;;;;;;;5.70;5.20;;;10.80;99.90;;;;;;5073522;28;20052;-74
2022/11/10 05:28:15;;;;;;;9.52;5.93;;;10.80;99.90;;;;;;5070679;28;20124;-75
2022/11/10 05:31:04;;;;;;;7.25;5.47;;;10.90;99.90;;;;;;5072546;28;20118;-75
2022/11/10 05:33:52;;;;;;;5.70;5.03;;;10.90;99.90;;;;;;5070247;28;20062;-75
2022/11/10 05:36:39;;;;;;;9.80;5.38;;;10.90;99.90;;;;;;5067277;28;20040;-74
2022/11/10 05:39:25;;;;;;;10.57;5.65;;;10.90;99.90;;;;;;5066389;28;20211;-75
2022/11/10 05:42:14;;;;;;;7.25;5.32;;;11.00;99.90;;;;;;5069121;28;20083;-75
2022/11/10 05:45:01;;;;;;;10.70;5.68;;;11.00;99.90;;;;;;5072464;28;20047;-73
2022/11/10 05:47:48;;;;;;;12.52;6.75;;;11.10;99.90;;;;;;5067254;28;20048;-74
2022/11/10 05:50:34;;;;;;;8.73;6.07;;;11.10;99.90;;;;;;5063292;28;20078;-74
2022/11/10 05:53:21;;;;;;;8.48;6.53;;;11.10;99.90;;;;;;5071783;28;20639;-76
2022/11/10 05:56:10;;;;;;;8.90;6.60;;;11.10;99.90;;;;;;5079141;28;20139;-73
2022/11/10 05:58:56;;;;;;;9.63;7.25;;;11.10;99.90;;;;;;5072043;28;20135;-75
2022/11/10 06:01:43;;;;;;;15.48;8.40;;;11.10;99.90;;;;;;5072033;28;20070;-75
2022/11/10 06:04:30;;;;;;;9.10;8.10;;;11.10;99.90;;;;;;5065810;28;20053;-74
2022/11/10 06:07:16;;;;;;;16.23;8.27;;;11.10;99.90;;;;;;5070271;28;20398;-75
2022/11/10 06:10:02;;;;;;;14.75;7.88;;;11.10;99.90;;;;;;5072854;28;20049;-75
2022/11/10 06:12:48;;;;;;;18.00;8.27;;;11.10;99.90;;;;;;5071132;28;20051;-76
2022/11/10 06:15:34;;;;;;;21.40;9.48;;;11.20;99.90;;;;;;5057440;28;20036;-74
2022/11/10 06:18:21;;;;;;;16.98;8.73;;;11.20;99.90;;;;;;5066885;28;20044;-75
2022/11/10 06:21:07;;;;;;;16.13;9.10;;;11.20;99.90;;;;;;5069207;28;20059;-74
2022/11/10 06:23:53;;;;;;;21.50;11.15;;;11.20;99.90;;;;;;5067542;28;20047;-77
2022/11/10 06:26:39;;;;;;;16.63;9.77;;;11.20;99.90;;;;;;5067697;28;20046;-77
2022/11/10 06:29:25;;;;;;;15.50;9.70;;;11.20;99.90;;;;;;5068958;28;20189;-77
2022/11/10 06:32:11;;;;;;;13.90;9.00;;;11.30;99.90;;;;;;5068964;28;20576;-79
2022/11/10 06:34:59;;;;;;;13.88;10.40;;;11.30;99.90;;;;;;5062193;28;20501;-77
2022/11/10 06:37:46;;;;;;;13.38;9.55;;;11.30;99.90;;;;;;5066246;28;20185;-79
2022/11/10 06:40:32;;;;;;;16.10;11.48;;;11.30;99.90;;;;;;5067658;28;20449;-79
2022/11/10 06:43:18;;;;;;;13.00;10.82;;;11.30;99.90;;;;;;5066603;28;20048;-79
2022/11/10 06:46:05;;;;;;;23.50;12.45;;;11.30;99.90;;;;;;5069487;28;20076;-79
2022/11/10 06:48:51;;;;;;;19.73;12.93;;;11.30;99.90;;;;;;5070660;28;20052;-80
2022/11/10 06:51:39;;;;;;;30.40;13.65;;;11.30;99.90;;;;;;5069786;28;20143;-78
2022/11/10 06:54:25;;;;;;;31.92;15.23;;;11.30;99.90;;;;;;5069736;28;20052;-78
2022/11/10 06:57:12;;;;;;;31.90;14.88;;;11.30;99.90;;;;;;5068302;28;20048;-80
2022/11/10 06:59:57;;;;;;;27.50;14.45;;;11.30;99.90;;;;;;5069968;28;20516;-79
2022/11/10 07:02:44;;;;;;;35.90;16.52;;;11.30;99.90;;;;;;5065644;28;20037;-80
2022/11/10 07:05:31;;;;;;;28.02;14.88;;;11.20;99.90;;;;;;5068638;28;20476;-79
2022/11/10 07:08:18;;;;;;;28.00;14.32;;;11.20;99.90;;;;;;5083720;28;20121;-76
2022/11/10 07:11:05;;;;;;;30.60;13.10;;;11.20;99.90;;;;;;5063582;28;20501;-79
2022/11/10 07:13:50;;;;;;;32.10;14.75;;;11.20;99.90;;;;;;5050446;28;20048;-76
2022/11/10 07:16:37;;;;;;;25.30;12.70;;;11.20;99.90;;;;;;5053738;28;20053;-76
2022/11/10 07:19:23;;;;;;;36.35;13.93;;;11.20;99.90;;;;;;5072252;28;20143;-77
2022/11/10 07:22:09;;;;;;;26.70;12.43;;;11.30;99.90;;;;;;5067519;28;20068;-76
2022/11/10 07:24:57;;;;;;;32.38;13.07;;;11.20;99.90;;;;;;5072267;28;20060;-76
2022/11/10 07:27:43;;;;;;;23.20;11.98;;;11.20;99.90;;;;;;5070452;28;20179;-76
2022/11/10 07:30:31;;;;;;;32.78;14.07;;;11.20;99.90;;;;;;5068054;28;20044;-75
2022/11/10 07:33:18;;;;;;;28.00;13.65;;;11.20;99.90;;;;;;5067126;28;20525;-76
2022/11/10 07:36:06;;;;;;;23.17;11.77;;;11.20;99.90;;;;;;5068607;28;20051;-77
2022/11/10 07:38:52;;;;;;;24.02;11.50;;;11.20;99.90;;;;;;5063321;28;20159;-76
2022/11/10 07:41:39;;;;;;;20.30;10.18;;;11.20;99.90;;;;;;5051238;28;20040;-76
2022/11/10 07:44:26;;;;;;;27.95;11.45;;;11.20;99.90;;;;;;5057632;28;20048;-76
2022/11/10 07:47:12;;;;;;;17.30;10.10;;;11.20;99.90;;;;;;5071743;28;20056;-77
2022/11/10 07:49:58;;;;;;;25.50;11.65;;;11.20;99.90;;;;;;5069976;28;20539;-77
2022/11/10 07:52:47;;;;;;;20.08;10.55;;;11.10;99.90;;;;;;5071559;28;20037;-77
2022/11/10 07:55:33;;;;;;;25.02;9.90;;;11.10;99.90;;;;;;5072428;28;20552;-76
2022/11/10 07:58:20;;;;;;;31.92;12.57;;;11.00;99.90;;;;;;5068186;28;20044;-76
2022/11/10 08:01:06;;;;;;;17.70;9.48;;;11.00;99.90;;;;;;5070189;28;20526;-76
2022/11/10 08:03:52;;;;;;;19.58;9.38;;;11.00;99.90;;;;;;5049815;28;20502;-75
2022/11/10 08:06:38;;;;;;;30.60;12.60;;;11.00;99.90;;;;;;5051032;28;20109;-76
2022/11/10 08:09:24;;;;;;;15.73;9.55;;;11.00;99.90;;;;;;5050506;28;20588;-76
2022/11/10 08:12:10;;;;;;;17.70;10.15;;;11.00;99.90;;;;;;5064662;28;20091;-77
2022/11/10 08:14:58;;;;;;;18.33;10.18;;;11.00;99.90;;;;;;5070744;28;20113;-76
2022/11/10 08:17:44;;;;;;;26.98;10.88;;;11.10;99.90;;;;;;5066665;28;20049;-76
2022/11/10 08:20:37;;;;;;;20.60;11.13;;;11.10;99.90;;;;;;5069839;28;20044;-76
2022/11/10 08:23:23;;;;;;;20.55;11.18;;;11.10;99.90;;;;;;5067272;28;20040;-79
2022/11/10 08:26:15;;;;;;;22.13;12.20;;;11.10;99.90;;;;;;5067217;28;20311;-80
2022/11/10 08:29:01;;;;;;;20.85;11.95;;;11.10;99.90;;;;;;5064899;28;20446;-78
2022/11/10 08:31:59;;;;;;;22.95;13.57;;;11.10;99.90;;;;;;5066232;28;20147;-76
2022/11/10 08:35:04;;;;;;;20.52;11.30;;;11.20;99.90;;;;;;5063689;28;20102;-77
2022/11/10 08:37:51;;;;;;;21.80;13.27;;;11.20;99.90;;;;;;5061683;28;21018;-76
2022/11/10 08:40:37;;;;;;;28.65;13.57;;;11.20;99.90;;;;;;5063360;28;20071;-75
2022/11/10 08:43:23;;;;;;;23.52;10.02;;;11.20;99.90;;;;;;5063530;28;20044;-76
2022/11/10 08:46:10;;;;;;;16.17;8.45;;;11.20;99.90;;;;;;5063797;28;20532;-76
2022/11/10 08:48:57;;;;;;;12.27;7.55;;;11.30;99.90;;;;;;5065023;28;20144;-76
2022/11/10 08:51:43;;;;;;;13.88;8.35;;;11.40;99.90;;;;;;5066050;28;20055;-75
2022/11/10 08:54:30;;;;;;;18.80;9.88;;;11.40;99.90;;;;;;5085164;28;20509;-77
2022/11/10 08:57:16;;;;;;;15.77;9.52;;;11.40;99.90;;;;;;5074131;28;20150;-75
2022/11/10 09:00:03;;;;;;;16.55;10.60;;;11.40;99.90;;;;;;5082659;28;20375;-75
2022/11/10 09:02:49;;;;;;;15.85;10.50;;;11.40;99.90;;;;;;5074902;28;20055;-76
2022/11/10 09:05:36;;;;;;;16.27;10.63;;;11.30;99.90;;;;;;5078768;28;20048;-75
2022/11/10 09:08:23;;;;;;;19.60;11.32;;;11.30;99.90;;;;;;5085319;28;20048;-76
2022/11/10 09:11:09;;;;;;;18.92;11.52;;;11.30;99.90;;;;;;5077281;28;20402;-76
2022/11/10 09:13:55;;;;;;;17.98;10.65;;;11.40;99.90;;;;;;5080331;28;20043;-75
2022/11/10 09:16:41;;;;;;;13.60;9.90;;;11.40;99.90;;;;;;5083003;28;20043;-75
2022/11/10 09:19:28;;;;;;;16.42;10.80;;;11.50;99.90;;;;;;5079518;28;20048;-74
2022/11/10 09:22:15;;;;;;;18.88;10.80;;;11.50;99.90;;;;;;5074955;28;20114;-74
2022/11/10 09:25:01;;;;;;;17.17;11.80;;;11.50;99.90;;;;;;5073510;28;20052;-73
2022/11/10 09:27:47;;;;;;;17.90;11.30;;;11.50;99.90;;;;;;5081861;28;20048;-79
2022/11/10 09:30:33;;;;;;;17.08;12.43;;;11.50;99.90;;;;;;5073344;28;20425;-77
2022/11/10 09:33:19;;;;;;;18.40;12.70;;;11.50;99.90;;;;;;5073770;28;20539;-79
2022/11/10 09:36:05;;;;;;;24.10;13.88;;;11.50;99.90;;;;;;5075686;28;20265;-80
2022/11/10 09:38:53;;;;;;;21.38;13.40;;;11.60;99.90;;;;;;5077866;28;20093;-77
2022/11/10 09:41:41;;;;;;;25.25;13.18;;;11.60;99.90;;;;;;5082125;28;20040;-80
2022/11/10 09:44:32;;;;;;;22.63;12.57;;;11.60;99.90;;;;;;5085608;28;20044;-82
2022/11/10 09:47:25;;;;;;;25.00;13.52;;;11.70;99.90;;;;;;5079299;28;20040;-73
2022/11/10 09:50:19;;;;;;;21.17;12.82;;;11.70;99.90;;;;;;5081352;28;20069;-80
2022/11/10 09:53:13;;;;;;;19.52;12.35;;;11.70;99.90;;;;;;5076960;28;20394;-80
2022/11/10 09:56:04;;;;;;;18.02;11.25;;;11.70;99.90;;;;;;5077355;28;20066;-80
2022/11/10 09:58:50;;;;;;;21.73;11.70;;;11.70;99.90;;;;;;5085442;28;20062;-79
2022/11/10 10:01:46;;;;;;;15.95;11.15;;;11.70;99.90;;;;;;5079517;28;20051;-78
2022/11/10 10:05:01;;;;;;;15.10;11.68;;;11.70;99.90;;;;;;5088683;28;20043;-80
2022/11/10 10:07:58;;;;;;;21.52;12.20;;;11.70;99.90;;;;;;5082579;28;20086;-79
2022/11/10 10:10:48;;;;;;;24.50;12.40;;;11.70;99.90;;;;;;5089194;28;20050;-79
2022/11/10 10:13:59;;;;;;;25.40;13.70;;;11.70;99.90;;;;;;5075591;28;20043;-79
2022/11/10 10:17:00;;;;;;;28.85;14.90;;;11.70;99.90;;;;;;5085555;28;20047;-79
2022/11/10 10:19:55;;;;;;;20.20;12.82;;;11.70;99.90;;;;;;5086739;28;20205;-75
2022/11/10 10:22:58;;;;;;;29.42;13.73;;;11.60;99.90;;;;;;5075454;28;20040;-77
2022/11/10 10:25:46;;;;;;;29.50;14.68;;;11.60;99.90;;;;;;5081583;28;20077;-81
2022/11/10 10:28:38;;;;;;;23.30;15.48;;;11.60;99.90;;;;;;5088647;28;20075;-81
2022/11/10 10:31:30;;;;;;;28.48;15.18;;;11.60;99.90;;;;;;5073585;28;20405;-76
2022/11/10 10:34:19;;;;;;;24.53;14.37;;;11.60;99.90;;;;;;5076085;28;20032;-81
2022/11/10 10:37:05;;;;;;;19.75;14.23;;;11.60;99.90;;;;;;5085845;28;20067;-79
2022/11/10 10:39:54;;;;;;;28.38;15.05;;;11.60;99.90;;;;;;5084394;28;20072;-80
2022/11/10 10:42:40;;;;;;;30.08;15.50;;;11.60;99.90;;;;;;5085591;28;20052;-79
2022/11/10 10:45:29;;;;;;;28.60;14.95;;;11.60;99.90;;;;;;5082164;28;20055;-80
2022/11/10 10:48:29;;;;;;;22.65;14.23;;;11.60;99.90;;;;;;5076540;28;20142;-78
2022/11/10 10:51:30;;;;;;;25.48;15.43;;;11.60;99.90;;;;;;5069452;28;20048;-76
2022/11/10 10:54:28;;;;;;;33.53;17.67;;;11.60;99.90;;;;;;5080576;28;20040;-77
2022/11/10 10:57:23;;;;;;;28.13;16.30;;;11.60;99.90;;;;;;5085494;28;20539;-77
2022/11/10 11:00:20;;;;;;;25.77;15.32;;;11.60;99.90;;;;;;5073512;28;20068;-74
2022/11/10 11:03:13;;;;;;;27.67;16.20;;;11.60;99.90;;;;;;5073387;28;20048;-72
2022/11/10 11:06:19;;;;;;;21.27;15.43;;;11.70;99.90;;;;;;5071798;28;20503;-79
2022/11/10 11:09:14;;;;;;;25.58;15.25;;;11.70;99.90;;;;;;5074948;28;20051;-77
2022/11/10 11:12:04;;;;;;;23.25;15.60;;;11.70;99.90;;;;;;5074170;28;20047;-77
2022/11/10 11:14:50;;;;;;;22.35;14.23;;;11.80;99.90;;;;;;5080371;28;20428;-76
2022/11/10 11:17:36;;;;;;;23.98;14.70;;;11.80;99.90;;;;;;5076353;28;20222;-76
2022/11/10 11:20:33;;;;;;;25.42;15.60;;;11.90;99.90;;;;;;5082340;28;20055;-77
2022/11/10 11:23:57;;;;;;;34.25;22.52;;;11.90;99.90;;;;;;5080131;28;20063;-77
2022/11/10 11:26:53;;;;;;;27.00;16.52;;;11.90;99.90;;;;;;5054182;28;20196;-75
2022/11/10 11:30:02;;;;;;;24.70;16.33;;;12.00;99.90;;;;;;5082532;28;20048;-75
2022/11/10 11:33:23;;;;;;;26.83;16.35;;;12.00;99.90;;;;;;5076122;28;20052;-75
2022/11/10 11:36:24;;;;;;;23.88;15.60;;;12.00;99.90;;;;;;5076083;28;20405;-79
2022/11/10 11:39:32;;;;;;;23.92;16.13;;;12.10;99.90;;;;;;5079640;28;20575;-78
2022/11/10 11:42:35;;;;;;;23.92;15.30;;;12.00;99.90;;;;;;5076905;28;20137;-78
2022/11/10 11:45:32;;;;;;;21.83;14.40;;;12.00;99.90;;;;;;5079434;28;20048;-78
2022/11/10 11:48:49;;;;;;;25.63;16.42;;;12.00;99.90;;;;;;5077258;28;20051;-77
2022/11/10 11:51:48;;;;;;;22.52;15.57;;;12.00;99.90;;;;;;5082406;28;20508;-76
2022/11/10 11:54:54;;;;;;;20.23;13.95;;;12.00;99.90;;;;;;5073053;28;20094;-79
2022/11/10 11:57:53;;;;;;;22.35;13.52;;;11.90;99.90;;;;;;5080532;28;20059;-77
2022/11/10 12:00:48;;;;;;;24.10;13.18;;;11.90;99.90;;;;;;5081838;28;20055;-79
2022/11/10 12:03:53;;;;;;;24.70;15.38;;;12.00;99.90;;;;;;5075798;28;20055;-80
2022/11/10 12:06:57;;;;;;;27.27;15.82;;;12.00;99.90;;;;;;5077389;28;20511;-81
2022/11/10 12:09:48;;;;;;;25.42;16.27;;;12.00;99.90;;;;;;5082349;28;20048;-81
2022/11/10 12:13:17;;;;;;;32.70;16.63;;;12.00;99.90;;;;;;5081215;28;20075;-79
2022/11/10 12:16:15;;;;;;;31.90;16.10;;;12.00;99.90;;;;;;5080092;28;20415;-81
2022/11/10 12:19:18;;;;;;;31.67;17.25;;;12.00;99.90;;;;;;5077786;28;20500;-78
2022/11/10 12:22:13;;;;;;;;;;;12.00;99.90;;;;;;5080963;28;20055;-78
2022/11/10 12:25:18;;;;;;;29.95;16.13;;;12.00;99.90;;;;;;5083812;28;19970;-76
2022/11/10 12:28:17;;;;;;;26.40;16.38;;;12.00;99.90;;;;;;5074861;28;20088;-76
2022/11/10 12:31:09;;;;;;;27.90;16.48;;;12.00;99.90;;;;;;5081863;28;20040;-73
2022/11/10 12:34:02;;;;;;;34.88;16.30;;;12.00;99.90;;;;;;5082982;28;20523;-76
2022/11/10 12:36:51;;;;;;;26.13;15.10;;;12.00;99.90;;;;;;5080862;28;20055;-80
2022/11/10 12:39:48;;;;;;;27.90;16.45;;;12.00;99.90;;;;;;5080858;28;20052;-79
2022/11/10 12:42:38;;;;;;;21.63;13.32;;;11.90;99.90;;;;;;5078292;28;20089;-79
2022/11/10 12:45:30;;;;;;;26.27;15.02;;;11.90;99.90;;;;;;5081622;28;20094;-78
2022/11/10 12:48:18;;;;;;;31.23;14.65;;;11.90;99.90;;;;;;5075644;28;20135;-79
2022/11/10 12:51:12;;;;;;;22.17;14.88;;;11.90;99.90;;;;;;5078901;28;20598;-78
2022/11/10 12:53:58;;;;;;;25.63;14.95;;;11.80;99.90;;;;;;5072570;28;20929;-79
2022/11/10 12:56:50;;;;;;;21.90;14.35;;;11.80;99.90;;;;;;5077218;28;20189;-80
2022/11/10 12:59:40;;;;;;;25.25;14.95;;;11.80;99.90;;;;;;5080669;28;20036;-79
2022/11/10 13:02:33;;;;;;;32.83;15.70;;;11.80;99.90;;;;;;5081288;28;20036;-78
2022/11/10 13:05:32;;;;;;;24.83;16.15;;;11.80;99.90;;;;;;5084204;28;20385;-80
2022/11/10 13:08:44;;;;;;;24.88;15.60;;;11.70;99.90;;;;;;5071303;28;20049;-78
2022/11/10 13:11:33;;;;;;;21.70;12.75;;;11.70;99.90;;;;;;5072177;28;20388;-78
2022/11/10 13:14:23;;;;;;;30.27;13.88;;;11.70;99.90;;;;;;5079726;28;20527;-78
2022/11/10 13:17:50;;;;;;;25.63;13.75;;;11.60;99.90;;;;;;5078999;28;20062;-80
2022/11/10 13:20:48;;;;;;;25.92;14.63;;;11.60;99.90;;;;;;5076750;28;20054;-77
2022/11/10 13:24:20;;;;;;;22.08;14.70;;;11.60;99.90;;;;;;5084408;28;20044;-79
2022/11/10 13:27:12;;;;;;;23.25;13.07;;;11.50;99.90;;;;;;5080977;28;20063;-78
2022/11/10 13:29:59;;;;;;;20.83;12.70;;;11.50;99.90;;;;;;5076503;28;20052;-81
2022/11/10 13:32:46;;;;;;;21.27;12.90;;;11.50;99.90;;;;;;5082639;28;20054;-78
2022/11/10 13:35:52;;;;;;;21.23;14.00;;;11.50;99.90;;;;;;5082826;28;20133;-80
2022/11/10 13:38:40;;;;;;;24.48;13.63;;;11.50;99.90;;;;;;5069750;28;20048;-81
2022/11/10 13:41:27;;;;;;;17.95;12.77;;;11.50;99.90;;;;;;5079832;28;20032;-80
2022/11/10 13:44:28;;;;;;;16.25;12.40;;;11.50;99.90;;;;;;5081105;28;20041;-82
2022/11/10 13:47:51;;;;;;;23.95;14.13;;;11.40;99.90;;;;;;5078750;28;20051;-81
2022/11/10 13:50:52;;;;;;;20.33;13.50;;;11.40;99.90;;;;;;5075881;28;20045;-77
2022/11/10 13:53:52;;;;;;;22.48;13.93;;;11.30;99.90;;;;;;5084616;28;20469;-78
2022/11/10 13:57:03;;;;;;;18.02;12.40;;;11.30;99.90;;;;;;5078867;28;20559;-81
2022/11/10 13:59:52;;;;;;;21.23;13.70;;;11.30;99.90;;;;;;5081921;28;20036;-81
2022/11/10 14:02:52;;;;;;;21.30;13.27;;;11.30;99.90;;;;;;5083529;28;20098;-80
2022/11/10 14:06:17;;;;;;;21.17;14.40;;;11.20;99.90;;;;;;5079182;28;20044;-83
2022/11/10 14:09:13;;;;;;;22.50;13.68;;;11.20;99.90;;;;;;5083741;28;20544;-78
2022/11/10 14:12:13;;;;;;;23.48;14.15;;;11.20;99.90;;;;;;5079961;28;20036;-80
2022/11/10 14:15:05;;;;;;;23.33;15.23;;;11.10;99.90;;;;;;5072002;28;20048;-78
2022/11/10 14:17:55;;;;;;;21.77;14.55;;;11.10;99.90;;;;;;5057496;28;20045;-83
2022/11/10 14:20:44;;;;;;;22.83;13.73;;;11.10;99.90;;;;;;5063703;28;20052;-79
2022/11/10 14:23:37;;;;;;;23.52;14.45;;;11.00;99.90;;;;;;5068425;28;20049;-77
2022/11/10 14:26:29;;;;;;;26.15;14.68;;;11.10;99.90;;;;;;5064335;28;20049;-80
2022/11/10 14:29:37;;;;;;;27.35;17.83;;;11.10;99.90;;;;;;5067038;28;20045;-79
2022/11/10 14:32:25;;;;;;;23.48;14.32;;;11.10;99.90;;;;;;5067848;28;20098;-75
2022/11/10 14:35:22;;;;;;;32.72;15.23;;;11.20;99.90;;;;;;5070707;28;20054;-74
2022/11/10 14:38:19;;;;;;;22.08;13.38;;;11.20;99.90;;;;;;5067889;28;20037;-73
2022/11/10 14:41:13;;;;;;;20.13;13.48;;;11.20;99.90;;;;;;5068749;28;20424;-74
2022/11/10 14:44:04;;;;;;;18.65;12.70;;;11.20;99.90;;;;;;5062530;28;20036;-74